sensor_id;sensor_type;location;lat;lon;timestamp;temperature;humidity
19330;DHT22;9799;48.214;16.388;2022-09-12T00:01:08;16.70;99.90
19330;DHT22;9799;48.214;16.388;2022-09-12T00:04:30;16.70;99.90
19330;DHT22;9799;48.214;16.388;2022-09-12T00:07:51;16.70;99.90
19330;DHT22;9799;48.214;16.388;2022-09-12T00:11:13;16.70;99.90
19330;DHT22;9799;48.214;16.388;2022-09-12T00:14:36;16.70;99.90
19330;DHT22;9799;48.214;16.388;2022-09-12T00:17:57;16.70;99.90
19330;DHT22;9799;48.214;16.388;2022-09-12T00:21:19;16.70;99.90
19330;DHT22;9799;48.214;16.388;2022-09-12T00:24:41;16.60;99.90
19330;DHT22;9799;48.214;16.388;2022-09-12T00:28:02;16.50;99.90
19330;DHT22;9799;48.214;16.388;2022-09-12T00:31:25;16.60;99.90
19330;DHT22;9799;48.214;16.388;2022-09-12T00:34:47;16.60;99.90
19330;DHT22;9799;48.214;16.388;2022-09-12T00:38:08;16.60;99.90
19330;DHT22;9799;48.214;16.388;2022-09-12T00:41:31;16.60;99.90
19330;DHT22;9799;48.214;16.388;2022-09-12T00:44:53;16.70;99.90
19330;DHT22;9799;48.214;16.388;2022-09-12T00:48:21;16.70;99.90
19330;DHT22;9799;48.214;16.388;2022-09-12T00:51:52;16.70;99.90
19330;DHT22;9799;48.214;16.388;2022-09-12T00:55:17;16.70;99.90
19330;DHT22;9799;48.214;16.388;2022-09-12T00:58:42;16.70;99.90
19330;DHT22;9799;48.214;16.388;2022-09-12T01:02:05;16.70;99.90
19330;DHT22;9799;48.214;16.388;2022-09-12T01:05:30;16.70;99.90
19330;DHT22;9799;48.214;16.388;2022-09-12T01:08:54;16.80;99.90
19330;DHT22;9799;48.214;16.388;2022-09-12T01:12:16;16.80;99.90
19330;DHT22;9799;48.214;16.388;2022-09-12T01:15:38;16.80;99.90
19330;DHT22;9799;48.214;16.388;2022-09-12T01:19:08;16.80;99.90
19330;DHT22;9799;48.214;16.388;2022-09-12T01:23:09;16.70;99.90
19330;DHT22;9799;48.214;16.388;2022-09-12T01:30:26;16.70;99.90
19330;DHT22;9799;48.214;16.388;2022-09-12T01:34:12;16.70;99.90
19330;DHT22;9799;48.214;16.388;2022-09-12T01:37:41;16.70;99.90
19330;DHT22;9799;48.214;16.388;2022-09-12T01:41:12;16.60;99.90
19330;DHT22;9799;48.214;16.388;2022-09-12T01:44:45;16.70;99.90
19330;DHT22;9799;48.214;16.388;2022-09-12T01:48:14;16.80;99.90
19330;DHT22;9799;48.214;16.388;2022-09-12T01:51:40;16.80;99.90
19330;DHT22;9799;48.214;16.388;2022-09-12T01:55:08;16.70;99.90
19330;DHT22;9799;48.214;16.388;2022-09-12T01:58:35;16.70;99.90
19330;DHT22;9799;48.214;16.388;2022-09-12T02:02:03;16.70;99.90
19330;DHT22;9799;48.214;16.388;2022-09-12T02:05:29;16.80;99.90
19330;DHT22;9799;48.214;16.388;2022-09-12T02:08:53;16.80;99.90
19330;DHT22;9799;48.214;16.388;2022-09-12T02:12:19;16.90;99.90
19330;DHT22;9799;48.214;16.388;2022-09-12T02:15:43;16.90;99.90
19330;DHT22;9799;48.214;16.388;2022-09-12T02:19:09;16.80;99.90
19330;DHT22;9799;48.214;16.388;2022-09-12T02:22:35;16.80;99.90
19330;DHT22;9799;48.214;16.388;2022-09-12T02:26:01;16.80;99.90
19330;DHT22;9799;48.214;16.388;2022-09-12T02:29:23;16.80;99.90
19330;DHT22;9799;48.214;16.388;2022-09-12T02:32:53;16.70;99.90
19330;DHT22;9799;48.214;16.388;2022-09-12T02:36:26;16.80;99.90
19330;DHT22;9799;48.214;16.388;2022-09-12T02:39:52;16.70;99.90
19330;DHT22;9799;48.214;16.388;2022-09-12T02:43:14;16.80;99.90
19330;DHT22;9799;48.214;16.388;2022-09-12T02:46:39;16.80;99.90
19330;DHT22;9799;48.214;16.388;2022-09-12T02:50:03;16.70;99.90
19330;DHT22;9799;48.214;16.388;2022-09-12T02:53:27;16.70;99.90
19330;DHT22;9799;48.214;16.388;2022-09-12T02:56:50;16.60;99.90
19330;DHT22;9799;48.214;16.388;2022-09-12T03:00:12;16.60;99.90
19330;DHT22;9799;48.214;16.388;2022-09-12T03:03:48;16.60;99.90
19330;DHT22;9799;48.214;16.388;2022-09-12T03:07:17;16.60;99.90
19330;DHT22;9799;48.214;16.388;2022-09-12T03:10:56;16.60;99.90
19330;DHT22;9799;48.214;16.388;2022-09-12T03:14:34;16.60;99.90
19330;DHT22;9799;48.214;16.388;2022-09-12T03:18:07;16.40;99.90
19330;DHT22;9799;48.214;16.388;2022-09-12T03:21:35;16.50;99.90
19330;DHT22;9799;48.214;16.388;2022-09-12T03:25:05;16.50;99.90
19330;DHT22;9799;48.214;16.388;2022-09-12T03:28:29;16.50;99.90
19330;DHT22;9799;48.214;16.388;2022-09-12T03:31:54;16.40;99.90
19330;DHT22;9799;48.214;16.388;2022-09-12T03:35:17;16.40;99.90
19330;DHT22;9799;48.214;16.388;2022-09-12T03:38:39;16.30;99.90
19330;DHT22;9799;48.214;16.388;2022-09-12T03:42:00;16.30;99.90
19330;DHT22;9799;48.214;16.388;2022-09-12T03:45:21;16.40;99.90
19330;DHT22;9799;48.214;16.388;2022-09-12T03:48:44;16.30;99.90
19330;DHT22;9799;48.214;16.388;2022-09-12T03:52:05;16.40;99.90
19330;DHT22;9799;48.214;16.388;2022-09-12T03:55:26;16.50;99.90
19330;DHT22;9799;48.214;16.388;2022-09-12T03:58:47;16.50;99.90
19330;DHT22;9799;48.214;16.388;2022-09-12T04:02:08;16.50;99.90
19330;DHT22;9799;48.214;16.388;2022-09-12T04:05:33;16.50;99.90
19330;DHT22;9799;48.214;16.388;2022-09-12T04:08:55;16.40;99.90
19330;DHT22;9799;48.214;16.388;2022-09-12T04:12:17;16.40;99.90
19330;DHT22;9799;48.214;16.388;2022-09-12T04:15:38;16.30;99.90
19330;DHT22;9799;48.214;16.388;2022-09-12T04:18:59;16.30;99.90
19330;DHT22;9799;48.214;16.388;2022-09-12T04:22:22;16.30;99.90
19330;DHT22;9799;48.214;16.388;2022-09-12T04:25:43;16.30;99.90
19330;DHT22;9799;48.214;16.388;2022-09-12T04:29:04;16.30;99.90
19330;DHT22;9799;48.214;16.388;2022-09-12T04:32:25;16.40;99.90
19330;DHT22;9799;48.214;16.388;2022-09-12T04:35:46;16.40;99.90
19330;DHT22;9799;48.214;16.388;2022-09-12T04:39:10;16.40;99.90
19330;DHT22;9799;48.214;16.388;2022-09-12T04:42:31;16.30;99.90
19330;DHT22;9799;48.214;16.388;2022-09-12T04:45:52;16.40;99.90
19330;DHT22;9799;48.214;16.388;2022-09-12T04:49:14;16.40;99.90
19330;DHT22;9799;48.214;16.388;2022-09-12T04:52:37;16.30;99.90
19330;DHT22;9799;48.214;16.388;2022-09-12T04:56:02;16.30;99.90
19330;DHT22;9799;48.214;16.388;2022-09-12T04:59:23;16.40;99.90
19330;DHT22;9799;48.214;16.388;2022-09-12T05:02:44;16.40;99.90
19330;DHT22;9799;48.214;16.388;2022-09-12T05:06:07;16.50;99.90
19330;DHT22;9799;48.214;16.388;2022-09-12T05:09:28;16.50;99.90
19330;DHT22;9799;48.214;16.388;2022-09-12T05:12:51;16.60;99.90
19330;DHT22;9799;48.214;16.388;2022-09-12T05:16:14;16.60;99.90
19330;DHT22;9799;48.214;16.388;2022-09-12T05:19:36;16.50;99.90
19330;DHT22;9799;48.214;16.388;2022-09-12T05:22:58;16.70;99.90
19330;DHT22;9799;48.214;16.388;2022-09-12T05:26:21;16.60;99.90
19330;DHT22;9799;48.214;16.388;2022-09-12T05:29:43;16.70;99.90
19330;DHT22;9799;48.214;16.388;2022-09-12T05:33:04;16.80;99.90
19330;DHT22;9799;48.214;16.388;2022-09-12T05:36:27;16.80;99.90
19330;DHT22;9799;48.214;16.388;2022-09-12T05:39:48;16.80;99.90
19330;DHT22;9799;48.214;16.388;2022-09-12T05:43:11;16.80;99.90
19330;DHT22;9799;48.214;16.388;2022-09-12T05:46:36;16.90;99.90
19330;DHT22;9799;48.214;16.388;2022-09-12T05:49:58;17.10;99.90
19330;DHT22;9799;48.214;16.388;2022-09-12T05:53:19;17.10;99.90
19330;DHT22;9799;48.214;16.388;2022-09-12T05:56:42;17.20;99.90
19330;DHT22;9799;48.214;16.388;2022-09-12T06:00:04;17.30;99.90
19330;DHT22;9799;48.214;16.388;2022-09-12T06:03:30;17.30;99.90
19330;DHT22;9799;48.214;16.388;2022-09-12T06:06:51;17.30;99.90
19330;DHT22;9799;48.214;16.388;2022-09-12T06:10:12;17.40;99.90
19330;DHT22;9799;48.214;16.388;2022-09-12T06:13:35;17.50;99.90
19330;DHT22;9799;48.214;16.388;2022-09-12T06:16:57;17.40;99.90
19330;DHT22;9799;48.214;16.388;2022-09-12T06:20:20;17.40;99.90
19330;DHT22;9799;48.214;16.388;2022-09-12T06:23:41;17.40;99.90
19330;DHT22;9799;48.214;16.388;2022-09-12T06:27:03;17.40;99.90
19330;DHT22;9799;48.214;16.388;2022-09-12T06:30:24;17.40;99.90
19330;DHT22;9799;48.214;16.388;2022-09-12T06:33:48;17.40;99.90
19330;DHT22;9799;48.214;16.388;2022-09-12T06:37:10;17.50;99.90
19330;DHT22;9799;48.214;16.388;2022-09-12T06:40:32;17.50;99.90
19330;DHT22;9799;48.214;16.388;2022-09-12T06:43:53;17.50;99.90
19330;DHT22;9799;48.214;16.388;2022-09-12T06:47:14;17.60;99.90
19330;DHT22;9799;48.214;16.388;2022-09-12T06:50:36;17.50;99.90
19330;DHT22;9799;48.214;16.388;2022-09-12T06:53:58;17.60;99.90
19330;DHT22;9799;48.214;16.388;2022-09-12T06:57:19;17.60;99.90
19330;DHT22;9799;48.214;16.388;2022-09-12T07:00:40;17.50;99.90
19330;DHT22;9799;48.214;16.388;2022-09-12T07:04:03;17.70;99.90
19330;DHT22;9799;48.214;16.388;2022-09-12T07:07:24;17.60;99.90
19330;DHT22;9799;48.214;16.388;2022-09-12T07:10:47;17.70;99.90
19330;DHT22;9799;48.214;16.388;2022-09-12T07:14:10;17.60;99.90
19330;DHT22;9799;48.214;16.388;2022-09-12T07:17:31;17.70;99.90
19330;DHT22;9799;48.214;16.388;2022-09-12T07:20:52;17.80;99.90
19330;DHT22;9799;48.214;16.388;2022-09-12T07:24:14;17.90;99.90
19330;DHT22;9799;48.214;16.388;2022-09-12T07:27:36;17.80;99.90
19330;DHT22;9799;48.214;16.388;2022-09-12T07:31:00;17.80;99.90
19330;DHT22;9799;48.214;16.388;2022-09-12T07:34:24;17.90;99.90
19330;DHT22;9799;48.214;16.388;2022-09-12T07:37:46;17.90;99.90
19330;DHT22;9799;48.214;16.388;2022-09-12T07:41:10;17.90;99.90
19330;DHT22;9799;48.214;16.388;2022-09-12T07:44:34;17.90;99.90
19330;DHT22;9799;48.214;16.388;2022-09-12T07:47:55;17.90;99.90
19330;DHT22;9799;48.214;16.388;2022-09-12T07:51:16;18.10;99.90
19330;DHT22;9799;48.214;16.388;2022-09-12T07:54:37;18.10;99.90
19330;DHT22;9799;48.214;16.388;2022-09-12T07:57:59;18.30;99.90
19330;DHT22;9799;48.214;16.388;2022-09-12T08:01:21;18.30;99.90
19330;DHT22;9799;48.214;16.388;2022-09-12T08:04:43;18.40;99.90
19330;DHT22;9799;48.214;16.388;2022-09-12T08:08:04;18.70;99.90
19330;DHT22;9799;48.214;16.388;2022-09-12T08:11:27;19.10;99.90
19330;DHT22;9799;48.214;16.388;2022-09-12T08:14:48;19.10;99.90
19330;DHT22;9799;48.214;16.388;2022-09-12T08:18:11;19.00;99.90
19330;DHT22;9799;48.214;16.388;2022-09-12T08:21:32;19.10;99.90
19330;DHT22;9799;48.214;16.388;2022-09-12T08:24:54;19.20;99.90
19330;DHT22;9799;48.214;16.388;2022-09-12T08:28:15;19.20;99.90
19330;DHT22;9799;48.214;16.388;2022-09-12T08:31:36;19.50;99.90
19330;DHT22;9799;48.214;16.388;2022-09-12T08:34:58;19.50;99.90
19330;DHT22;9799;48.214;16.388;2022-09-12T08:38:20;19.40;99.90
19330;DHT22;9799;48.214;16.388;2022-09-12T08:41:43;19.60;99.90
19330;DHT22;9799;48.214;16.388;2022-09-12T08:45:12;19.40;99.90
19330;DHT22;9799;48.214;16.388;2022-09-12T08:48:37;19.40;99.90
19330;DHT22;9799;48.214;16.388;2022-09-12T08:52:06;19.30;99.90
19330;DHT22;9799;48.214;16.388;2022-09-12T08:55:32;19.60;99.90
19330;DHT22;9799;48.214;16.388;2022-09-12T08:58:54;19.50;99.90
19330;DHT22;9799;48.214;16.388;2022-09-12T09:02:51;19.70;99.90
19330;DHT22;9799;48.214;16.388;2022-09-12T09:06:25;19.60;99.90
19330;DHT22;9799;48.214;16.388;2022-09-12T09:10:02;19.60;99.90
19330;DHT22;9799;48.214;16.388;2022-09-12T09:13:36;19.60;99.90
19330;DHT22;9799;48.214;16.388;2022-09-12T09:17:21;19.80;99.90
19330;DHT22;9799;48.214;16.388;2022-09-12T09:20:46;20.00;99.90
19330;DHT22;9799;48.214;16.388;2022-09-12T09:24:11;20.20;99.90
19330;DHT22;9799;48.214;16.388;2022-09-12T09:27:42;20.30;99.90
19330;DHT22;9799;48.214;16.388;2022-09-12T09:31:07;20.00;99.90
19330;DHT22;9799;48.214;16.388;2022-09-12T09:34:31;19.80;99.90
19330;DHT22;9799;48.214;16.388;2022-09-12T09:38:13;19.80;99.90
19330;DHT22;9799;48.214;16.388;2022-09-12T09:41:44;19.80;99.90
19330;DHT22;9799;48.214;16.388;2022-09-12T09:45:16;19.80;99.90
19330;DHT22;9799;48.214;16.388;2022-09-12T09:48:40;19.90;99.90
19330;DHT22;9799;48.214;16.388;2022-09-12T09:52:05;19.90;99.90
19330;DHT22;9799;48.214;16.388;2022-09-12T09:55:31;19.90;99.90
19330;DHT22;9799;48.214;16.388;2022-09-12T09:58:53;19.90;99.90
19330;DHT22;9799;48.214;16.388;2022-09-12T10:02:20;19.90;99.90
19330;DHT22;9799;48.214;16.388;2022-09-12T10:05:47;19.90;99.90
19330;DHT22;9799;48.214;16.388;2022-09-12T10:09:30;19.90;99.90
19330;DHT22;9799;48.214;16.388;2022-09-12T10:13:06;20.00;99.90
19330;DHT22;9799;48.214;16.388;2022-09-12T10:16:30;20.00;99.90
19330;DHT22;9799;48.214;16.388;2022-09-12T10:19:53;20.40;99.90
19330;DHT22;9799;48.214;16.388;2022-09-12T10:23:26;20.20;99.90
19330;DHT22;9799;48.214;16.388;2022-09-12T10:26:51;20.10;99.90
19330;DHT22;9799;48.214;16.388;2022-09-12T10:30:17;20.00;99.90
19330;DHT22;9799;48.214;16.388;2022-09-12T10:33:41;20.10;99.90
19330;DHT22;9799;48.214;16.388;2022-09-12T10:37:06;20.00;99.90
19330;DHT22;9799;48.214;16.388;2022-09-12T10:40:29;20.10;99.90
19330;DHT22;9799;48.214;16.388;2022-09-12T10:43:51;20.30;99.90
19330;DHT22;9799;48.214;16.388;2022-09-12T10:47:20;20.50;99.90
19330;DHT22;9799;48.214;16.388;2022-09-12T10:50:42;20.60;99.90
19330;DHT22;9799;48.214;16.388;2022-09-12T10:54:07;20.60;99.90
19330;DHT22;9799;48.214;16.388;2022-09-12T10:57:53;20.40;99.90
19330;DHT22;9799;48.214;16.388;2022-09-12T11:01:32;20.60;99.90
19330;DHT22;9799;48.214;16.388;2022-09-12T11:05:01;20.90;99.90
19330;DHT22;9799;48.214;16.388;2022-09-12T11:08:41;20.70;99.90
19330;DHT22;9799;48.214;16.388;2022-09-12T11:12:13;20.70;99.90
19330;DHT22;9799;48.214;16.388;2022-09-12T11:15:48;20.70;99.90
19330;DHT22;9799;48.214;16.388;2022-09-12T11:19:28;20.90;99.90
19330;DHT22;9799;48.214;16.388;2022-09-12T11:27:03;21.00;99.90
19330;DHT22;9799;48.214;16.388;2022-09-12T11:30:36;21.00;99.90
19330;DHT22;9799;48.214;16.388;2022-09-12T11:34:00;21.20;99.90
19330;DHT22;9799;48.214;16.388;2022-09-12T11:37:40;21.50;99.90
19330;DHT22;9799;48.214;16.388;2022-09-12T11:41:06;21.70;99.90
19330;DHT22;9799;48.214;16.388;2022-09-12T11:44:33;21.80;99.90
19330;DHT22;9799;48.214;16.388;2022-09-12T11:48:04;21.50;99.90
19330;DHT22;9799;48.214;16.388;2022-09-12T11:51:32;21.60;99.90
19330;DHT22;9799;48.214;16.388;2022-09-12T11:54:59;21.80;99.90
19330;DHT22;9799;48.214;16.388;2022-09-12T11:58:25;21.80;99.90
19330;DHT22;9799;48.214;16.388;2022-09-12T12:01:50;21.90;99.90
19330;DHT22;9799;48.214;16.388;2022-09-12T12:05:19;21.90;99.90
19330;DHT22;9799;48.214;16.388;2022-09-12T12:08:43;21.50;99.90
19330;DHT22;9799;48.214;16.388;2022-09-12T12:12:07;21.80;99.90
19330;DHT22;9799;48.214;16.388;2022-09-12T12:15:34;21.60;99.90
19330;DHT22;9799;48.214;16.388;2022-09-12T12:18:58;21.60;99.90
19330;DHT22;9799;48.214;16.388;2022-09-12T12:22:22;21.70;99.90
19330;DHT22;9799;48.214;16.388;2022-09-12T12:25:52;21.70;99.90
19330;DHT22;9799;48.214;16.388;2022-09-12T12:29:37;22.10;99.90
19330;DHT22;9799;48.214;16.388;2022-09-12T12:32:58;22.30;99.90
19330;DHT22;9799;48.214;16.388;2022-09-12T12:36:31;22.10;99.90
19330;DHT22;9799;48.214;16.388;2022-09-12T12:39:57;22.00;99.90
19330;DHT22;9799;48.214;16.388;2022-09-12T12:43:30;22.00;99.90
19330;DHT22;9799;48.214;16.388;2022-09-12T12:47:07;21.90;99.90
19330;DHT22;9799;48.214;16.388;2022-09-12T12:50:29;21.90;99.90
19330;DHT22;9799;48.214;16.388;2022-09-12T12:53:52;22.00;99.90
19330;DHT22;9799;48.214;16.388;2022-09-12T13:01:13;22.10;99.90
19330;DHT22;9799;48.214;16.388;2022-09-12T13:04:35;22.20;99.90
19330;DHT22;9799;48.214;16.388;2022-09-12T13:08:07;22.10;99.90
19330;DHT22;9799;48.214;16.388;2022-09-12T13:11:32;22.40;99.90
19330;DHT22;9799;48.214;16.388;2022-09-12T13:14:55;22.50;99.90
19330;DHT22;9799;48.214;16.388;2022-09-12T13:18:23;22.50;99.90
19330;DHT22;9799;48.214;16.388;2022-09-12T13:21:54;22.30;99.90
19330;DHT22;9799;48.214;16.388;2022-09-12T13:25:22;22.30;99.90
19330;DHT22;9799;48.214;16.388;2022-09-12T13:28:43;22.40;99.90
19330;DHT22;9799;48.214;16.388;2022-09-12T13:32:05;22.60;99.90
19330;DHT22;9799;48.214;16.388;2022-09-12T13:35:36;22.70;99.90
19330;DHT22;9799;48.214;16.388;2022-09-12T13:39:08;22.50;99.90
19330;DHT22;9799;48.214;16.388;2022-09-12T13:42:38;22.30;99.90
19330;DHT22;9799;48.214;16.388;2022-09-12T13:46:00;22.40;99.90
19330;DHT22;9799;48.214;16.388;2022-09-12T13:49:28;22.40;99.90
19330;DHT22;9799;48.214;16.388;2022-09-12T13:52:58;22.60;99.90
19330;DHT22;9799;48.214;16.388;2022-09-12T13:56:20;22.20;99.90
19330;DHT22;9799;48.214;16.388;2022-09-12T13:59:41;22.20;99.90
19330;DHT22;9799;48.214;16.388;2022-09-12T14:03:23;22.10;99.90
19330;DHT22;9799;48.214;16.388;2022-09-12T14:07:10;21.80;99.90
19330;DHT22;9799;48.214;16.388;2022-09-12T14:10:34;21.90;99.90
19330;DHT22;9799;48.214;16.388;2022-09-12T14:13:57;21.90;99.90
19330;DHT22;9799;48.214;16.388;2022-09-12T14:17:23;21.90;99.90
19330;DHT22;9799;48.214;16.388;2022-09-12T14:20:46;21.90;99.90
19330;DHT22;9799;48.214;16.388;2022-09-12T14:24:10;21.80;99.90
19330;DHT22;9799;48.214;16.388;2022-09-12T14:27:39;21.80;99.90
19330;DHT22;9799;48.214;16.388;2022-09-12T14:31:06;21.60;99.90
19330;DHT22;9799;48.214;16.388;2022-09-12T14:34:28;21.40;99.90
19330;DHT22;9799;48.214;16.388;2022-09-12T14:37:50;21.40;99.90
19330;DHT22;9799;48.214;16.388;2022-09-12T14:41:13;21.60;99.90
19330;DHT22;9799;48.214;16.388;2022-09-12T14:44:50;21.70;99.90
19330;DHT22;9799;48.214;16.388;2022-09-12T14:48:13;21.80;99.90
19330;DHT22;9799;48.214;16.388;2022-09-12T14:51:39;21.70;99.90
19330;DHT22;9799;48.214;16.388;2022-09-12T14:55:19;21.80;99.90
19330;DHT22;9799;48.214;16.388;2022-09-12T14:58:41;21.90;99.90
19330;DHT22;9799;48.214;16.388;2022-09-12T15:02:23;21.90;99.90
19330;DHT22;9799;48.214;16.388;2022-09-12T15:05:48;21.80;99.90
19330;DHT22;9799;48.214;16.388;2022-09-12T15:09:12;21.70;99.90
19330;DHT22;9799;48.214;16.388;2022-09-12T15:12:34;21.80;99.90
19330;DHT22;9799;48.214;16.388;2022-09-12T15:15:56;21.90;99.90
19330;DHT22;9799;48.214;16.388;2022-09-12T15:19:18;21.90;99.90
19330;DHT22;9799;48.214;16.388;2022-09-12T15:22:40;21.80;99.90
19330;DHT22;9799;48.214;16.388;2022-09-12T15:26:02;21.90;99.90
19330;DHT22;9799;48.214;16.388;2022-09-12T15:29:23;21.90;99.90
19330;DHT22;9799;48.214;16.388;2022-09-12T15:32:44;21.90;99.90
19330;DHT22;9799;48.214;16.388;2022-09-12T15:36:13;21.80;99.90
19330;DHT22;9799;48.214;16.388;2022-09-12T15:39:35;21.80;99.90
19330;DHT22;9799;48.214;16.388;2022-09-12T15:42:56;21.70;99.90
19330;DHT22;9799;48.214;16.388;2022-09-12T15:46:18;21.60;99.90
19330;DHT22;9799;48.214;16.388;2022-09-12T15:49:39;21.60;99.90
19330;DHT22;9799;48.214;16.388;2022-09-12T15:53:02;21.50;99.90
19330;DHT22;9799;48.214;16.388;2022-09-12T15:56:23;21.40;99.90
19330;DHT22;9799;48.214;16.388;2022-09-12T15:59:44;21.40;99.90
19330;DHT22;9799;48.214;16.388;2022-09-12T16:03:05;21.40;99.90
19330;DHT22;9799;48.214;16.388;2022-09-12T16:06:27;21.50;99.90
19330;DHT22;9799;48.214;16.388;2022-09-12T16:09:51;21.50;99.90
19330;DHT22;9799;48.214;16.388;2022-09-12T16:13:12;21.40;99.90
19330;DHT22;9799;48.214;16.388;2022-09-12T16:16:33;21.40;99.90
19330;DHT22;9799;48.214;16.388;2022-09-12T16:19:54;21.40;99.90
19330;DHT22;9799;48.214;16.388;2022-09-12T16:23:15;21.30;99.90
19330;DHT22;9799;48.214;16.388;2022-09-12T16:26:38;21.30;99.90
19330;DHT22;9799;48.214;16.388;2022-09-12T16:29:59;21.20;99.90
19330;DHT22;9799;48.214;16.388;2022-09-12T16:33:20;21.20;99.90
19330;DHT22;9799;48.214;16.388;2022-09-12T16:36:41;21.10;99.90
19330;DHT22;9799;48.214;16.388;2022-09-12T16:40:05;21.00;99.90
19330;DHT22;9799;48.214;16.388;2022-09-12T16:43:28;21.00;99.90
19330;DHT22;9799;48.214;16.388;2022-09-12T16:46:50;20.90;99.90
19330;DHT22;9799;48.214;16.388;2022-09-12T16:50:11;20.90;99.90
19330;DHT22;9799;48.214;16.388;2022-09-12T16:53:34;20.90;99.90
19330;DHT22;9799;48.214;16.388;2022-09-12T16:56:56;20.90;99.90
19330;DHT22;9799;48.214;16.388;2022-09-12T17:00:18;20.80;99.90
19330;DHT22;9799;48.214;16.388;2022-09-12T17:03:40;20.80;99.90
19330;DHT22;9799;48.214;16.388;2022-09-12T17:07:01;20.80;99.90
19330;DHT22;9799;48.214;16.388;2022-09-12T17:10:22;20.70;99.90
19330;DHT22;9799;48.214;16.388;2022-09-12T17:13:46;20.70;99.90
19330;DHT22;9799;48.214;16.388;2022-09-12T17:17:08;20.70;99.90
19330;DHT22;9799;48.214;16.388;2022-09-12T17:20:30;20.70;99.90
19330;DHT22;9799;48.214;16.388;2022-09-12T17:23:51;20.60;99.90
19330;DHT22;9799;48.214;16.388;2022-09-12T17:27:12;20.60;99.90
19330;DHT22;9799;48.214;16.388;2022-09-12T17:30:33;20.50;99.90
19330;DHT22;9799;48.214;16.388;2022-09-12T17:33:56;20.50;99.90
19330;DHT22;9799;48.214;16.388;2022-09-12T17:37:18;20.40;99.90
19330;DHT22;9799;48.214;16.388;2022-09-12T17:40:40;20.40;99.90
19330;DHT22;9799;48.214;16.388;2022-09-12T17:44:02;20.30;99.90
19330;DHT22;9799;48.214;16.388;2022-09-12T17:47:26;20.20;99.90
19330;DHT22;9799;48.214;16.388;2022-09-12T17:50:48;20.10;99.90
19330;DHT22;9799;48.214;16.388;2022-09-12T17:54:12;20.00;99.90
19330;DHT22;9799;48.214;16.388;2022-09-12T17:57:34;20.00;99.90
19330;DHT22;9799;48.214;16.388;2022-09-12T18:01:00;19.90;99.90
19330;DHT22;9799;48.214;16.388;2022-09-12T18:04:38;20.00;99.90
19330;DHT22;9799;48.214;16.388;2022-09-12T18:08:02;19.90;99.90
19330;DHT22;9799;48.214;16.388;2022-09-12T18:11:23;19.80;99.90
19330;DHT22;9799;48.214;16.388;2022-09-12T18:14:44;19.90;99.90
19330;DHT22;9799;48.214;16.388;2022-09-12T18:18:05;19.90;99.90
19330;DHT22;9799;48.214;16.388;2022-09-12T18:21:27;19.80;99.90
19330;DHT22;9799;48.214;16.388;2022-09-12T18:24:50;19.70;99.90
19330;DHT22;9799;48.214;16.388;2022-09-12T18:28:11;19.60;99.90
19330;DHT22;9799;48.214;16.388;2022-09-12T18:31:33;19.70;99.90
19330;DHT22;9799;48.214;16.388;2022-09-12T18:34:54;19.70;99.90
19330;DHT22;9799;48.214;16.388;2022-09-12T18:38:15;19.50;99.90
19330;DHT22;9799;48.214;16.388;2022-09-12T18:41:38;19.50;99.90
19330;DHT22;9799;48.214;16.388;2022-09-12T18:44:59;19.50;99.90
19330;DHT22;9799;48.214;16.388;2022-09-12T18:48:20;19.50;99.90
19330;DHT22;9799;48.214;16.388;2022-09-12T18:51:41;19.40;99.90
19330;DHT22;9799;48.214;16.388;2022-09-12T18:55:04;19.40;99.90
19330;DHT22;9799;48.214;16.388;2022-09-12T18:58:26;19.40;99.90
19330;DHT22;9799;48.214;16.388;2022-09-12T19:01:47;19.40;99.90
19330;DHT22;9799;48.214;16.388;2022-09-12T19:05:08;19.40;99.90
19330;DHT22;9799;48.214;16.388;2022-09-12T19:08:31;19.30;99.90
19330;DHT22;9799;48.214;16.388;2022-09-12T19:11:53;19.40;99.90
19330;DHT22;9799;48.214;16.388;2022-09-12T19:15:15;19.30;99.90
19330;DHT22;9799;48.214;16.388;2022-09-12T19:18:38;19.20;99.90
19330;DHT22;9799;48.214;16.388;2022-09-12T19:21:59;19.20;99.90
19330;DHT22;9799;48.214;16.388;2022-09-12T19:25:20;19.30;99.90
19330;DHT22;9799;48.214;16.388;2022-09-12T19:28:42;19.30;99.90
19330;DHT22;9799;48.214;16.388;2022-09-12T19:32:05;19.20;99.90
19330;DHT22;9799;48.214;16.388;2022-09-12T19:35:27;19.20;99.90
19330;DHT22;9799;48.214;16.388;2022-09-12T19:38:48;19.20;99.90
19330;DHT22;9799;48.214;16.388;2022-09-12T19:42:09;19.20;99.90
19330;DHT22;9799;48.214;16.388;2022-09-12T19:45:30;19.10;99.90
19330;DHT22;9799;48.214;16.388;2022-09-12T19:48:53;19.10;99.90
19330;DHT22;9799;48.214;16.388;2022-09-12T19:52:14;19.00;99.90
19330;DHT22;9799;48.214;16.388;2022-09-12T19:55:35;18.90;99.90
19330;DHT22;9799;48.214;16.388;2022-09-12T19:58:56;18.80;99.90
19330;DHT22;9799;48.214;16.388;2022-09-12T20:02:17;18.80;99.90
19330;DHT22;9799;48.214;16.388;2022-09-12T20:05:40;18.70;99.90
19330;DHT22;9799;48.214;16.388;2022-09-12T20:09:01;18.60;99.90
19330;DHT22;9799;48.214;16.388;2022-09-12T20:12:22;18.60;99.90
19330;DHT22;9799;48.214;16.388;2022-09-12T20:15:43;18.60;99.90
19330;DHT22;9799;48.214;16.388;2022-09-12T20:19:05;18.60;99.90
19330;DHT22;9799;48.214;16.388;2022-09-12T20:22:28;18.60;99.90
19330;DHT22;9799;48.214;16.388;2022-09-12T20:25:49;18.60;99.90
19330;DHT22;9799;48.214;16.388;2022-09-12T20:29:11;18.60;99.90
19330;DHT22;9799;48.214;16.388;2022-09-12T20:32:32;18.60;99.90
19330;DHT22;9799;48.214;16.388;2022-09-12T20:36:00;18.60;99.90
19330;DHT22;9799;48.214;16.388;2022-09-12T20:39:23;18.60;99.90
19330;DHT22;9799;48.214;16.388;2022-09-12T20:42:44;18.60;99.90
19330;DHT22;9799;48.214;16.388;2022-09-12T20:46:05;18.60;99.90
19330;DHT22;9799;48.214;16.388;2022-09-12T20:49:28;18.60;99.90
19330;DHT22;9799;48.214;16.388;2022-09-12T20:52:49;18.60;99.90
19330;DHT22;9799;48.214;16.388;2022-09-12T20:56:12;18.60;99.90
19330;DHT22;9799;48.214;16.388;2022-09-12T20:59:33;18.60;99.90
19330;DHT22;9799;48.214;16.388;2022-09-12T21:02:58;18.60;99.90
19330;DHT22;9799;48.214;16.388;2022-09-12T21:06:19;18.50;99.90
19330;DHT22;9799;48.214;16.388;2022-09-12T21:09:41;18.30;99.90
19330;DHT22;9799;48.214;16.388;2022-09-12T21:13:03;18.30;99.90
19330;DHT22;9799;48.214;16.388;2022-09-12T21:16:24;18.20;99.90
19330;DHT22;9799;48.214;16.388;2022-09-12T21:19:45;18.20;99.90
19330;DHT22;9799;48.214;16.388;2022-09-12T21:23:07;18.30;99.90
19330;DHT22;9799;48.214;16.388;2022-09-12T21:26:28;18.40;99.90
19330;DHT22;9799;48.214;16.388;2022-09-12T21:29:53;18.30;99.90
19330;DHT22;9799;48.214;16.388;2022-09-12T21:33:14;18.30;99.90
19330;DHT22;9799;48.214;16.388;2022-09-12T21:36:35;18.30;99.90
19330;DHT22;9799;48.214;16.388;2022-09-12T21:39:56;18.30;99.90
19330;DHT22;9799;48.214;16.388;2022-09-12T21:43:17;18.20;99.90